sensor_id;sensor_type;location;lat;lon;timestamp;temperature;humidity
4054;DHT22;2042;47.956;9.222;2024-03-23T00:56:16;4.70;28.30
4054;DHT22;2042;47.956;9.222;2024-03-23T00:58:42;4.60;27.40
4054;DHT22;2042;47.956;9.222;2024-03-23T01:01:07;4.60;27.00
4054;DHT22;2042;47.956;9.222;2024-03-23T01:03:33;4.50;26.30
4054;DHT22;2042;47.956;9.222;2024-03-23T01:06:02;4.50;27.00
4054;DHT22;2042;47.956;9.222;2024-03-23T01:08:29;4.40;26.30
4054;DHT22;2042;47.956;9.222;2024-03-23T01:10:56;4.30;25.70
4054;DHT22;2042;47.956;9.222;2024-03-23T01:13:22;4.20;25.50
4054;DHT22;2042;47.956;9.222;2024-03-23T01:15:50;4.10;25.90
4054;DHT22;2042;47.956;9.222;2024-03-23T01:18:17;4.10;26.50
4054;DHT22;2042;47.956;9.222;2024-03-23T01:20:43;4.10;27.70
4054;DHT22;2042;47.956;9.222;2024-03-23T01:23:09;4.20;31.30
4054;DHT22;2042;47.956;9.222;2024-03-23T01:25:34;4.30;31.10
4054;DHT22;2042;47.956;9.222;2024-03-23T01:28:00;4.30;31.50
4054;DHT22;2042;47.956;9.222;2024-03-23T01:30:26;4.30;30.00
4054;DHT22;2042;47.956;9.222;2024-03-23T01:32:51;4.20;30.20
4054;DHT22;2042;47.956;9.222;2024-03-23T01:35:17;4.30;32.30
4054;DHT22;2042;47.956;9.222;2024-03-23T01:37:42;4.40;34.70
4054;DHT22;2042;47.956;9.222;2024-03-23T01:40:08;4.50;35.40
4054;DHT22;2042;47.956;9.222;2024-03-23T01:42:34;4.60;36.10
4054;DHT22;2042;47.956;9.222;2024-03-23T01:45:01;4.60;36.20
4054;DHT22;2042;47.956;9.222;2024-03-23T01:47:26;4.60;35.70
4054;DHT22;2042;47.956;9.222;2024-03-23T01:49:52;4.60;36.80
4054;DHT22;2042;47.956;9.222;2024-03-23T01:52:18;4.70;38.00
4054;DHT22;2042;47.956;9.222;2024-03-23T01:54:44;4.80;39.10
4054;DHT22;2042;47.956;9.222;2024-03-23T01:57:10;5.00;41.20
4054;DHT22;2042;47.956;9.222;2024-03-23T01:59:36;5.30;43.70
4054;DHT22;2042;47.956;9.222;2024-03-23T02:02:01;5.50;45.30
4054;DHT22;2042;47.956;9.222;2024-03-23T02:04:27;5.70;46.00
4054;DHT22;2042;47.956;9.222;2024-03-23T02:06:53;5.90;46.30
4054;DHT22;2042;47.956;9.222;2024-03-23T02:09:18;6.00;46.30
4054;DHT22;2042;47.956;9.222;2024-03-23T02:11:44;6.10;46.00
4054;DHT22;2042;47.956;9.222;2024-03-23T02:14:10;6.20;46.60
4054;DHT22;2042;47.956;9.222;2024-03-23T02:16:35;6.40;47.40
4054;DHT22;2042;47.956;9.222;2024-03-23T02:19:01;6.70;48.50
4054;DHT22;2042;47.956;9.222;2024-03-23T02:21:26;6.90;49.10
4054;DHT22;2042;47.956;9.222;2024-03-23T02:23:53;7.10;47.90
4054;DHT22;2042;47.956;9.222;2024-03-23T02:26:18;7.20;47.20
4054;DHT22;2042;47.956;9.222;2024-03-23T02:28:44;7.30;45.80
4054;DHT22;2042;47.956;9.222;2024-03-23T02:31:11;7.30;42.80
4054;DHT22;2042;47.956;9.222;2024-03-23T02:33:36;7.30;40.70
4054;DHT22;2042;47.956;9.222;2024-03-23T02:36:03;7.30;39.40
4054;DHT22;2042;47.956;9.222;2024-03-23T02:38:29;7.20;38.50
4054;DHT22;2042;47.956;9.222;2024-03-23T02:41:00;7.20;37.40
4054;DHT22;2042;47.956;9.222;2024-03-23T02:43:26;7.20;37.20
4054;DHT22;2042;47.956;9.222;2024-03-23T02:45:52;7.20;36.50
4054;DHT22;2042;47.956;9.222;2024-03-23T02:48:18;7.20;36.50
4054;DHT22;2042;47.956;9.222;2024-03-23T02:50:43;7.30;37.50
4054;DHT22;2042;47.956;9.222;2024-03-23T02:53:09;7.50;37.30
4054;DHT22;2042;47.956;9.222;2024-03-23T02:55:36;7.70;35.40
4054;DHT22;2042;47.956;9.222;2024-03-23T02:58:01;7.90;32.90
4054;DHT22;2042;47.956;9.222;2024-03-23T03:00:28;8.00;30.00
4054;DHT22;2042;47.956;9.222;2024-03-23T03:02:53;7.90;24.90
4054;DHT22;2042;47.956;9.222;2024-03-23T03:05:19;7.80;22.70
4054;DHT22;2042;47.956;9.222;2024-03-23T03:07:45;7.60;19.70
4054;DHT22;2042;47.956;9.222;2024-03-23T03:10:10;7.40;20.80
4054;DHT22;2042;47.956;9.222;2024-03-23T03:12:37;7.40;23.00
4054;DHT22;2042;47.956;9.222;2024-03-23T03:15:04;7.50;23.60
4054;DHT22;2042;47.956;9.222;2024-03-23T03:17:30;7.40;23.20
4054;DHT22;2042;47.956;9.222;2024-03-23T03:19:56;7.40;21.60
4054;DHT22;2042;47.956;9.222;2024-03-23T03:22:22;7.20;19.90
4054;DHT22;2042;47.956;9.222;2024-03-23T03:24:48;7.10;21.20
4054;DHT22;2042;47.956;9.222;2024-03-23T03:27:14;7.20;25.10
4054;DHT22;2042;47.956;9.222;2024-03-23T03:29:40;7.40;26.40
4054;DHT22;2042;47.956;9.222;2024-03-23T03:32:06;7.70;25.90
4054;DHT22;2042;47.956;9.222;2024-03-23T03:34:31;7.80;24.30
4054;DHT22;2042;47.956;9.222;2024-03-23T03:36:57;8.00;22.70
4054;DHT22;2042;47.956;9.222;2024-03-23T03:39:23;8.10;19.00
4054;DHT22;2042;47.956;9.222;2024-03-23T03:41:49;8.10;16.10
4054;DHT22;2042;47.956;9.222;2024-03-23T03:44:16;8.20;14.90
4054;DHT22;2042;47.956;9.222;2024-03-23T03:46:42;8.20;12.30
4054;DHT22;2042;47.956;9.222;2024-03-23T03:49:09;8.10;9.40
4054;DHT22;2042;47.956;9.222;2024-03-23T03:51:34;8.00;7.60
4054;DHT22;2042;47.956;9.222;2024-03-23T03:54:00;7.90;6.00
4054;DHT22;2042;47.956;9.222;2024-03-23T03:56:26;7.80;6.40
4054;DHT22;2042;47.956;9.222;2024-03-23T03:58:53;7.90;5.60
4054;DHT22;2042;47.956;9.222;2024-03-23T04:01:18;7.90;5.30
4054;DHT22;2042;47.956;9.222;2024-03-23T04:03:45;8.00;4.80
4054;DHT22;2042;47.956;9.222;2024-03-23T04:06:11;8.10;3.90
4054;DHT22;2042;47.956;9.222;2024-03-23T04:08:37;8.10;1.60
4054;DHT22;2042;47.956;9.222;2024-03-23T04:11:03;8.20;1.00
4054;DHT22;2042;47.956;9.222;2024-03-23T04:13:29;8.20;1.00
4054;DHT22;2042;47.956;9.222;2024-03-23T04:15:55;8.20;1.00
4054;DHT22;2042;47.956;9.222;2024-03-23T04:18:21;8.10;1.00
4054;DHT22;2042;47.956;9.222;2024-03-23T04:20:48;8.00;1.00
4054;DHT22;2042;47.956;9.222;2024-03-23T04:23:14;7.90;1.00
4054;DHT22;2042;47.956;9.222;2024-03-23T04:25:39;7.90;1.00
4054;DHT22;2042;47.956;9.222;2024-03-23T04:28:05;7.80;1.00
4054;DHT22;2042;47.956;9.222;2024-03-23T04:30:31;7.70;1.00
4054;DHT22;2042;47.956;9.222;2024-03-23T04:32:57;7.70;1.00
4054;DHT22;2042;47.956;9.222;2024-03-23T04:35:24;7.60;1.00
4054;DHT22;2042;47.956;9.222;2024-03-23T04:37:55;7.50;1.00
4054;DHT22;2042;47.956;9.222;2024-03-23T04:40:24;7.50;1.00
4054;DHT22;2042;47.956;9.222;2024-03-23T04:42:50;7.40;1.00
4054;DHT22;2042;47.956;9.222;2024-03-23T04:45:17;7.30;1.00
4054;DHT22;2042;47.956;9.222;2024-03-23T04:47:43;7.10;1.00
4054;DHT22;2042;47.956;9.222;2024-03-23T04:50:09;7.00;1.00
4054;DHT22;2042;47.956;9.222;2024-03-23T04:52:36;7.00;1.00
4054;DHT22;2042;47.956;9.222;2024-03-23T04:55:01;6.90;1.70
4054;DHT22;2042;47.956;9.222;2024-03-23T04:57:27;6.90;3.90
4054;DHT22;2042;47.956;9.222;2024-03-23T04:59:53;6.90;6.30
4054;DHT22;2042;47.956;9.222;2024-03-23T05:02:18;6.90;7.90
4054;DHT22;2042;47.956;9.222;2024-03-23T05:04:44;7.10;10.00
4054;DHT22;2042;47.956;9.222;2024-03-23T05:07:09;7.20;10.00
4054;DHT22;2042;47.956;9.222;2024-03-23T05:09:35;7.40;9.00
4054;DHT22;2042;47.956;9.222;2024-03-23T05:12:01;7.40;8.30
4054;DHT22;2042;47.956;9.222;2024-03-23T05:14:26;7.50;7.60
4054;DHT22;2042;47.956;9.222;2024-03-23T05:16:52;7.40;6.80
4054;DHT22;2042;47.956;9.222;2024-03-23T05:19:18;7.30;7.80
4054;DHT22;2042;47.956;9.222;2024-03-23T05:21:44;7.30;8.80
4054;DHT22;2042;47.956;9.222;2024-03-23T05:24:10;7.20;11.00
4054;DHT22;2042;47.956;9.222;2024-03-23T05:26:36;7.20;12.40
4054;DHT22;2042;47.956;9.222;2024-03-23T05:29:02;7.20;13.90
4054;DHT22;2042;47.956;9.222;2024-03-23T05:31:30;7.20;15.50
4054;DHT22;2042;47.956;9.222;2024-03-23T05:33:56;7.20;16.40
4054;DHT22;2042;47.956;9.222;2024-03-23T05:36:21;7.30;16.50
4054;DHT22;2042;47.956;9.222;2024-03-23T05:38:47;7.30;14.30
4054;DHT22;2042;47.956;9.222;2024-03-23T05:41:13;7.30;11.80
4054;DHT22;2042;47.956;9.222;2024-03-23T05:43:39;7.30;11.50
4054;DHT22;2042;47.956;9.222;2024-03-23T05:46:05;7.20;11.70
4054;DHT22;2042;47.956;9.222;2024-03-23T05:48:31;7.20;13.40
4054;DHT22;2042;47.956;9.222;2024-03-23T05:50:57;7.20;15.30
4054;DHT22;2042;47.956;9.222;2024-03-23T05:53:24;7.30;15.80
4054;DHT22;2042;47.956;9.222;2024-03-23T05:55:50;7.30;16.20
4054;DHT22;2042;47.956;9.222;2024-03-23T05:58:17;7.30;17.90
4054;DHT22;2042;47.956;9.222;2024-03-23T06:00:43;7.40;19.40
4054;DHT22;2042;47.956;9.222;2024-03-23T06:03:09;7.50;20.60
4054;DHT22;2042;47.956;9.222;2024-03-23T06:05:35;7.50;21.80
4054;DHT22;2042;47.956;9.222;2024-03-23T06:08:01;7.60;22.90
4054;DHT22;2042;47.956;9.222;2024-03-23T06:10:27;7.60;23.20
4054;DHT22;2042;47.956;9.222;2024-03-23T06:12:53;7.70;24.30
4054;DHT22;2042;47.956;9.222;2024-03-23T06:15:19;7.70;25.10
4054;DHT22;2042;47.956;9.222;2024-03-23T06:17:45;7.80;26.40
4054;DHT22;2042;47.956;9.222;2024-03-23T06:20:11;7.80;26.70
4054;DHT22;2042;47.956;9.222;2024-03-23T06:22:36;7.80;27.20
4054;DHT22;2042;47.956;9.222;2024-03-23T06:25:03;7.90;28.30
4054;DHT22;2042;47.956;9.222;2024-03-23T06:27:28;7.90;29.10
4054;DHT22;2042;47.956;9.222;2024-03-23T06:29:54;7.90;29.70
4054;DHT22;2042;47.956;9.222;2024-03-23T06:32:20;7.90;30.30
4054;DHT22;2042;47.956;9.222;2024-03-23T06:34:46;8.00;30.80
4054;DHT22;2042;47.956;9.222;2024-03-23T06:37:12;8.00;32.00
4054;DHT22;2042;47.956;9.222;2024-03-23T06:39:38;8.10;32.40
4054;DHT22;2042;47.956;9.222;2024-03-23T06:42:04;8.10;32.90
4054;DHT22;2042;47.956;9.222;2024-03-23T06:44:30;8.10;33.50
4054;DHT22;2042;47.956;9.222;2024-03-23T06:46:56;8.10;33.40
4054;DHT22;2042;47.956;9.222;2024-03-23T06:49:23;8.10;33.50
4054;DHT22;2042;47.956;9.222;2024-03-23T06:51:49;8.10;34.10
4054;DHT22;2042;47.956;9.222;2024-03-23T06:54:14;8.20;34.50
4054;DHT22;2042;47.956;9.222;2024-03-23T06:56:40;8.20;34.90
4054;DHT22;2042;47.956;9.222;2024-03-23T06:59:06;8.20;35.50
4054;DHT22;2042;47.956;9.222;2024-03-23T07:01:32;8.30;37.00
4054;DHT22;2042;47.956;9.222;2024-03-23T07:03:58;8.40;38.40
4054;DHT22;2042;47.956;9.222;2024-03-23T07:06:23;8.40;38.10
4054;DHT22;2042;47.956;9.222;2024-03-23T07:08:49;8.50;37.50
4054;DHT22;2042;47.956;9.222;2024-03-23T07:11:21;8.50;37.50
4054;DHT22;2042;47.956;9.222;2024-03-23T07:13:50;8.50;35.40
4054;DHT22;2042;47.956;9.222;2024-03-23T07:16:16;8.50;33.90
4054;DHT22;2042;47.956;9.222;2024-03-23T07:18:42;8.40;33.00
4054;DHT22;2042;47.956;9.222;2024-03-23T07:21:07;8.30;30.90
4054;DHT22;2042;47.956;9.222;2024-03-23T07:23:33;8.30;28.50
4054;DHT22;2042;47.956;9.222;2024-03-23T07:26:00;8.20;27.40
4054;DHT22;2042;47.956;9.222;2024-03-23T07:28:26;8.20;25.50
4054;DHT22;2042;47.956;9.222;2024-03-23T07:31:13;8.10;25.00
4054;DHT22;2042;47.956;9.222;2024-03-23T07:36:09;8.00;22.70
4054;DHT22;2042;47.956;9.222;2024-03-23T07:38:35;7.90;20.10
4054;DHT22;2042;47.956;9.222;2024-03-23T07:41:11;7.80;18.50
4054;DHT22;2042;47.956;9.222;2024-03-23T07:43:38;7.80;17.10
4054;DHT22;2042;47.956;9.222;2024-03-23T07:46:04;7.80;16.70
4054;DHT22;2042;47.956;9.222;2024-03-23T07:48:31;7.70;15.10
4054;DHT22;2042;47.956;9.222;2024-03-23T07:51:05;7.70;11.40
4054;DHT22;2042;47.956;9.222;2024-03-23T07:53:32;7.60;3.20
4054;DHT22;2042;47.956;9.222;2024-03-23T07:56:00;7.50;1.00
4054;DHT22;2042;47.956;9.222;2024-03-23T07:58:26;7.40;1.00
4054;DHT22;2042;47.956;9.222;2024-03-23T08:00:53;7.40;1.00
4054;DHT22;2042;47.956;9.222;2024-03-23T08:03:19;7.40;1.00
4054;DHT22;2042;47.956;9.222;2024-03-23T08:05:44;7.50;1.00
4054;DHT22;2042;47.956;9.222;2024-03-23T08:08:10;7.60;1.00
4054;DHT22;2042;47.956;9.222;2024-03-23T08:10:37;7.60;1.00
4054;DHT22;2042;47.956;9.222;2024-03-23T08:13:02;7.80;1.00
4054;DHT22;2042;47.956;9.222;2024-03-23T08:15:30;7.90;1.00
4054;DHT22;2042;47.956;9.222;2024-03-23T08:17:59;8.10;1.00
4054;DHT22;2042;47.956;9.222;2024-03-23T08:20:25;8.20;1.00
4054;DHT22;2042;47.956;9.222;2024-03-23T08:22:50;8.30;1.00
4054;DHT22;2042;47.956;9.222;2024-03-23T08:25:16;8.40;1.00
4054;DHT22;2042;47.956;9.222;2024-03-23T08:27:44;8.50;1.00
4054;DHT22;2042;47.956;9.222;2024-03-23T08:30:10;8.50;1.00
4054;DHT22;2042;47.956;9.222;2024-03-23T08:32:36;8.40;1.00
4054;DHT22;2042;47.956;9.222;2024-03-23T08:35:02;8.30;1.00
4054;DHT22;2042;47.956;9.222;2024-03-23T08:37:28;8.30;1.00
4054;DHT22;2042;47.956;9.222;2024-03-23T08:39:53;8.30;1.00
4054;DHT22;2042;47.956;9.222;2024-03-23T08:42:19;8.30;1.00
4054;DHT22;2042;47.956;9.222;2024-03-23T08:44:47;8.40;1.00
4054;DHT22;2042;47.956;9.222;2024-03-23T08:47:15;8.40;1.00
4054;DHT22;2042;47.956;9.222;2024-03-23T08:49:41;8.40;1.00
4054;DHT22;2042;47.956;9.222;2024-03-23T08:52:08;8.30;1.00
4054;DHT22;2042;47.956;9.222;2024-03-23T08:54:34;8.40;1.00
4054;DHT22;2042;47.956;9.222;2024-03-23T08:57:00;8.40;1.00
4054;DHT22;2042;47.956;9.222;2024-03-23T08:59:26;8.50;1.00
4054;DHT22;2042;47.956;9.222;2024-03-23T09:01:52;8.50;1.00
4054;DHT22;2042;47.956;9.222;2024-03-23T09:04:17;8.50;1.00
4054;DHT22;2042;47.956;9.222;2024-03-23T09:06:43;8.50;1.00
4054;DHT22;2042;47.956;9.222;2024-03-23T09:09:09;8.60;1.00
4054;DHT22;2042;47.956;9.222;2024-03-23T09:11:35;8.60;1.00
4054;DHT22;2042;47.956;9.222;2024-03-23T09:14:00;8.60;1.00
4054;DHT22;2042;47.956;9.222;2024-03-23T09:16:26;8.50;1.00
4054;DHT22;2042;47.956;9.222;2024-03-23T09:18:52;8.30;1.00
4054;DHT22;2042;47.956;9.222;2024-03-23T09:21:18;8.30;1.00
4054;DHT22;2042;47.956;9.222;2024-03-23T09:23:44;8.30;1.00
4054;DHT22;2042;47.956;9.222;2024-03-23T09:26:10;8.40;1.00
4054;DHT22;2042;47.956;9.222;2024-03-23T09:28:36;8.50;1.00
4054;DHT22;2042;47.956;9.222;2024-03-23T09:31:05;8.60;1.00
4054;DHT22;2042;47.956;9.222;2024-03-23T09:33:32;8.80;1.00
4054;DHT22;2042;47.956;9.222;2024-03-23T09:35:59;9.10;1.00
4054;DHT22;2042;47.956;9.222;2024-03-23T09:38:28;9.20;1.00
4054;DHT22;2042;47.956;9.222;2024-03-23T09:40:53;9.40;1.00
4054;DHT22;2042;47.956;9.222;2024-03-23T09:43:19;9.90;1.00
4054;DHT22;2042;47.956;9.222;2024-03-23T09:45:46;9.70;1.00
4054;DHT22;2042;47.956;9.222;2024-03-23T09:48:12;9.40;1.00
4054;DHT22;2042;47.956;9.222;2024-03-23T09:50:39;9.20;1.00
4054;DHT22;2042;47.956;9.222;2024-03-23T09:53:11;9.10;1.00
4054;DHT22;2042;47.956;9.222;2024-03-23T09:55:41;9.20;1.00
4054;DHT22;2042;47.956;9.222;2024-03-23T09:58:07;9.30;1.00
4054;DHT22;2042;47.956;9.222;2024-03-23T10:00:37;9.30;1.00
4054;DHT22;2042;47.956;9.222;2024-03-23T10:03:04;9.90;1.00
4054;DHT22;2042;47.956;9.222;2024-03-23T10:05:31;10.40;1.00
4054;DHT22;2042;47.956;9.222;2024-03-23T10:08:16;10.60;1.00
4054;DHT22;2042;47.956;9.222;2024-03-23T10:10:44;10.50;1.00
4054;DHT22;2042;47.956;9.222;2024-03-23T10:13:10;11.10;1.00
4054;DHT22;2042;47.956;9.222;2024-03-23T10:15:38;11.20;1.00
4054;DHT22;2042;47.956;9.222;2024-03-23T10:18:30;11.10;1.00
4054;DHT22;2042;47.956;9.222;2024-03-23T10:23:34;10.90;1.00
4054;DHT22;2042;47.956;9.222;2024-03-23T10:26:22;10.70;1.00
4054;DHT22;2042;47.956;9.222;2024-03-23T10:28:52;11.60;1.00
4054;DHT22;2042;47.956;9.222;2024-03-23T10:31:19;13.20;1.00
4054;DHT22;2042;47.956;9.222;2024-03-23T10:33:46;14.40;1.00
4054;DHT22;2042;47.956;9.222;2024-03-23T10:36:13;15.00;1.00
4054;DHT22;2042;47.956;9.222;2024-03-23T10:38:43;14.70;1.00
4054;DHT22;2042;47.956;9.222;2024-03-23T10:41:09;14.00;1.00
4054;DHT22;2042;47.956;9.222;2024-03-23T10:43:36;13.60;1.00
4054;DHT22;2042;47.956;9.222;2024-03-23T10:46:03;13.80;1.00
4054;DHT22;2042;47.956;9.222;2024-03-23T10:48:29;14.80;1.00
4054;DHT22;2042;47.956;9.222;2024-03-23T10:50:55;15.10;1.00
4054;DHT22;2042;47.956;9.222;2024-03-23T10:53:28;16.60;1.00
4054;DHT22;2042;47.956;9.222;2024-03-23T10:55:55;18.00;1.00
4054;DHT22;2042;47.956;9.222;2024-03-23T11:00:55;20.20;1.00
4054;DHT22;2042;47.956;9.222;2024-03-23T11:03:32;20.70;1.00
4054;DHT22;2042;47.956;9.222;2024-03-23T11:05:58;19.80;1.00
4054;DHT22;2042;47.956;9.222;2024-03-23T11:08:35;18.60;1.00
4054;DHT22;2042;47.956;9.222;2024-03-23T11:11:17;17.70;1.00
4054;DHT22;2042;47.956;9.222;2024-03-23T11:13:48;17.40;1.00
4054;DHT22;2042;47.956;9.222;2024-03-23T11:16:22;17.20;1.00
4054;DHT22;2042;47.956;9.222;2024-03-23T11:18:48;17.70;1.00
4054;DHT22;2042;47.956;9.222;2024-03-23T11:21:54;18.80;1.00
4054;DHT22;2042;47.956;9.222;2024-03-23T11:24:21;19.20;1.00
4054;DHT22;2042;47.956;9.222;2024-03-23T11:26:48;19.60;1.00
4054;DHT22;2042;47.956;9.222;2024-03-23T11:29:15;18.60;1.00
4054;DHT22;2042;47.956;9.222;2024-03-23T11:31:47;18.00;1.00
4054;DHT22;2042;47.956;9.222;2024-03-23T11:34:15;17.10;1.00
4054;DHT22;2042;47.956;9.222;2024-03-23T11:36:44;16.50;1.00
4054;DHT22;2042;47.956;9.222;2024-03-23T11:39:17;15.90;1.00
4054;DHT22;2042;47.956;9.222;2024-03-23T11:41:51;16.20;1.00
4054;DHT22;2042;47.956;9.222;2024-03-23T11:44:21;17.00;1.00
4054;DHT22;2042;47.956;9.222;2024-03-23T11:46:51;18.00;1.00
4054;DHT22;2042;47.956;9.222;2024-03-23T11:49:23;18.20;1.00
4054;DHT22;2042;47.956;9.222;2024-03-23T11:51:51;18.60;1.00
4054;DHT22;2042;47.956;9.222;2024-03-23T11:54:23;18.40;1.00
4054;DHT22;2042;47.956;9.222;2024-03-23T11:57:01;17.30;1.00
4054;DHT22;2042;47.956;9.222;2024-03-23T12:01:59;14.70;1.00
4054;DHT22;2042;47.956;9.222;2024-03-23T12:04:28;13.80;1.00
4054;DHT22;2042;47.956;9.222;2024-03-23T12:07:17;13.40;1.00
4054;DHT22;2042;47.956;9.222;2024-03-23T12:10:06;13.50;1.00
4054;DHT22;2042;47.956;9.222;2024-03-23T12:12:31;13.30;1.00
4054;DHT22;2042;47.956;9.222;2024-03-23T12:15:07;13.00;1.00
4054;DHT22;2042;47.956;9.222;2024-03-23T12:17:34;12.60;1.00
4054;DHT22;2042;47.956;9.222;2024-03-23T12:20:00;12.30;1.00
4054;DHT22;2042;47.956;9.222;2024-03-23T12:22:26;11.90;1.00
4054;DHT22;2042;47.956;9.222;2024-03-23T12:24:52;11.40;1.00
4054;DHT22;2042;47.956;9.222;2024-03-23T12:27:18;11.10;1.00
4054;DHT22;2042;47.956;9.222;2024-03-23T12:29:44;10.50;1.00
4054;DHT22;2042;47.956;9.222;2024-03-23T12:32:13;9.20;1.00
4054;DHT22;2042;47.956;9.222;2024-03-23T12:34:39;8.10;1.00
4054;DHT22;2042;47.956;9.222;2024-03-23T12:37:05;7.10;1.00
4054;DHT22;2042;47.956;9.222;2024-03-23T12:39:34;7.10;1.00
4054;DHT22;2042;47.956;9.222;2024-03-23T12:42:01;7.50;1.00
4054;DHT22;2042;47.956;9.222;2024-03-23T12:44:29;7.60;1.00
4054;DHT22;2042;47.956;9.222;2024-03-23T12:46:54;7.90;1.00
4054;DHT22;2042;47.956;9.222;2024-03-23T12:49:20;9.20;1.00
4054;DHT22;2042;47.956;9.222;2024-03-23T12:51:56;9.60;1.00
4054;DHT22;2042;47.956;9.222;2024-03-23T12:54:22;9.30;1.00
4054;DHT22;2042;47.956;9.222;2024-03-23T12:56:48;9.10;1.00
4054;DHT22;2042;47.956;9.222;2024-03-23T12:59:14;9.10;1.00
4054;DHT22;2042;47.956;9.222;2024-03-23T13:01:40;9.00;1.00
4054;DHT22;2042;47.956;9.222;2024-03-23T13:04:06;8.80;1.00
4054;DHT22;2042;47.956;9.222;2024-03-23T13:06:31;8.60;1.00
4054;DHT22;2042;47.956;9.222;2024-03-23T13:09:00;8.20;1.00
4054;DHT22;2042;47.956;9.222;2024-03-23T13:11:26;7.90;1.00
4054;DHT22;2042;47.956;9.222;2024-03-23T13:13:52;7.50;1.00
4054;DHT22;2042;47.956;9.222;2024-03-23T13:16:18;7.30;1.00
4054;DHT22;2042;47.956;9.222;2024-03-23T13:18:43;7.50;1.00
4054;DHT22;2042;47.956;9.222;2024-03-23T13:21:09;8.00;1.00
4054;DHT22;2042;47.956;9.222;2024-03-23T13:23:35;9.50;1.00
4054;DHT22;2042;47.956;9.222;2024-03-23T13:26:01;10.90;1.00
4054;DHT22;2042;47.956;9.222;2024-03-23T13:28:26;11.90;1.00
4054;DHT22;2042;47.956;9.222;2024-03-23T13:30:56;11.90;1.00
4054;DHT22;2042;47.956;9.222;2024-03-23T13:33:29;12.20;1.00
4054;DHT22;2042;47.956;9.222;2024-03-23T13:35:55;13.40;1.00
4054;DHT22;2042;47.956;9.222;2024-03-23T13:38:22;14.50;1.00
4054;DHT22;2042;47.956;9.222;2024-03-23T13:40:52;15.20;1.00
4054;DHT22;2042;47.956;9.222;2024-03-23T13:43:17;15.40;1.00
4054;DHT22;2042;47.956;9.222;2024-03-23T13:45:43;15.60;1.00
4054;DHT22;2042;47.956;9.222;2024-03-23T13:48:09;15.60;1.00
4054;DHT22;2042;47.956;9.222;2024-03-23T13:50:35;15.40;1.00
4054;DHT22;2042;47.956;9.222;2024-03-23T13:53:01;15.30;1.00
4054;DHT22;2042;47.956;9.222;2024-03-23T13:55:27;15.00;1.00
4054;DHT22;2042;47.956;9.222;2024-03-23T13:57:52;15.00;1.00
4054;DHT22;2042;47.956;9.222;2024-03-23T14:00:18;15.10;1.00
4054;DHT22;2042;47.956;9.222;2024-03-23T14:02:44;15.30;1.00
4054;DHT22;2042;47.956;9.222;2024-03-23T14:05:10;15.50;1.00
4054;DHT22;2042;47.956;9.222;2024-03-23T14:07:36;14.80;1.00
4054;DHT22;2042;47.956;9.222;2024-03-23T14:10:03;14.40;1.00
4054;DHT22;2042;47.956;9.222;2024-03-23T14:12:30;14.10;1.00
4054;DHT22;2042;47.956;9.222;2024-03-23T14:14:55;13.80;1.00
4054;DHT22;2042;47.956;9.222;2024-03-23T14:17:21;14.30;1.00
4054;DHT22;2042;47.956;9.222;2024-03-23T14:19:46;15.40;1.00
4054;DHT22;2042;47.956;9.222;2024-03-23T14:22:12;15.70;1.00
4054;DHT22;2042;47.956;9.222;2024-03-23T14:24:38;14.90;1.00
4054;DHT22;2042;47.956;9.222;2024-03-23T14:27:04;14.00;1.00
4054;DHT22;2042;47.956;9.222;2024-03-23T14:29:32;13.80;1.00
4054;DHT22;2042;47.956;9.222;2024-03-23T14:31:59;13.70;1.00
4054;DHT22;2042;47.956;9.222;2024-03-23T14:34:26;14.00;1.00
4054;DHT22;2042;47.956;9.222;2024-03-23T14:36:53;14.40;1.00
4054;DHT22;2042;47.956;9.222;2024-03-23T14:39:23;14.60;1.00
4054;DHT22;2042;47.956;9.222;2024-03-23T14:41:50;14.80;1.00
4054;DHT22;2042;47.956;9.222;2024-03-23T14:44:16;14.40;1.00
4054;DHT22;2042;47.956;9.222;2024-03-23T14:46:42;14.10;1.00
4054;DHT22;2042;47.956;9.222;2024-03-23T14:49:08;13.70;1.00
4054;DHT22;2042;47.956;9.222;2024-03-23T14:51:34;12.80;1.00
4054;DHT22;2042;47.956;9.222;2024-03-23T14:54:00;11.80;1.00
4054;DHT22;2042;47.956;9.222;2024-03-23T14:56:26;11.00;1.00
4054;DHT22;2042;47.956;9.222;2024-03-23T14:58:54;10.50;1.00
4054;DHT22;2042;47.956;9.222;2024-03-23T15:01:21;10.10;1.00
4054;DHT22;2042;47.956;9.222;2024-03-23T15:03:46;10.00;1.00
4054;DHT22;2042;47.956;9.222;2024-03-23T15:06:13;10.00;1.00
4054;DHT22;2042;47.956;9.222;2024-03-23T15:08:39;9.80;1.00
4054;DHT22;2042;47.956;9.222;2024-03-23T15:11:06;9.50;1.00
4054;DHT22;2042;47.956;9.222;2024-03-23T15:13:35;9.40;1.00
4054;DHT22;2042;47.956;9.222;2024-03-23T15:16:01;9.20;1.00
4054;DHT22;2042;47.956;9.222;2024-03-23T15:18:29;9.10;1.00
4054;DHT22;2042;47.956;9.222;2024-03-23T15:20:56;9.00;1.00
4054;DHT22;2042;47.956;9.222;2024-03-23T15:23:22;8.90;1.00
4054;DHT22;2042;47.956;9.222;2024-03-23T15:25:58;8.70;1.00
4054;DHT22;2042;47.956;9.222;2024-03-23T15:28:25;8.60;1.00
4054;DHT22;2042;47.956;9.222;2024-03-23T15:31:07;8.50;1.00
4054;DHT22;2042;47.956;9.222;2024-03-23T15:33:33;8.50;1.00
4054;DHT22;2042;47.956;9.222;2024-03-23T15:35:59;8.40;1.00
4054;DHT22;2042;47.956;9.222;2024-03-23T15:38:25;8.40;1.00
4054;DHT22;2042;47.956;9.222;2024-03-23T15:40:53;8.50;1.00
4054;DHT22;2042;47.956;9.222;2024-03-23T15:43:19;8.60;1.00
4054;DHT22;2042;47.956;9.222;2024-03-23T15:45:54;8.70;1.00
4054;DHT22;2042;47.956;9.222;2024-03-23T15:48:20;8.80;1.00
4054;DHT22;2042;47.956;9.222;2024-03-23T15:50:53;8.90;1.00
4054;DHT22;2042;47.956;9.222;2024-03-23T15:53:23;8.90;1.00
4054;DHT22;2042;47.956;9.222;2024-03-23T15:56:00;8.90;1.00
4054;DHT22;2042;47.956;9.222;2024-03-23T15:58:26;8.80;1.00
4054;DHT22;2042;47.956;9.222;2024-03-23T16:03:30;8.70;1.00
4054;DHT22;2042;47.956;9.222;2024-03-23T16:05:59;8.70;1.00
4054;DHT22;2042;47.956;9.222;2024-03-23T16:08:25;8.70;1.00
4054;DHT22;2042;47.956;9.222;2024-03-23T16:10:52;8.80;1.00
4054;DHT22;2042;47.956;9.222;2024-03-23T16:13:18;8.70;1.00
4054;DHT22;2042;47.956;9.222;2024-03-23T16:18:23;8.40;1.00
4054;DHT22;2042;47.956;9.222;2024-03-23T16:20:56;8.00;1.00
4054;DHT22;2042;47.956;9.222;2024-03-23T16:23:21;7.80;1.00
4054;DHT22;2042;47.956;9.222;2024-03-23T16:25:51;7.60;1.00
4054;DHT22;2042;47.956;9.222;2024-03-23T16:28:23;7.50;1.00
4054;DHT22;2042;47.956;9.222;2024-03-23T16:31:01;7.40;1.00
4054;DHT22;2042;47.956;9.222;2024-03-23T16:33:28;7.40;1.00
4054;DHT22;2042;47.956;9.222;2024-03-23T16:36:04;7.30;1.00
4054;DHT22;2042;47.956;9.222;2024-03-23T16:38:36;7.20;1.00
4054;DHT22;2042;47.956;9.222;2024-03-23T16:41:10;7.00;1.00
4054;DHT22;2042;47.956;9.222;2024-03-23T16:43:38;6.80;1.00
4054;DHT22;2042;47.956;9.222;2024-03-23T16:46:12;6.60;1.00
4054;DHT22;2042;47.956;9.222;2024-03-23T16:48:44;6.50;1.00
4054;DHT22;2042;47.956;9.222;2024-03-23T16:51:11;6.50;1.00
4054;DHT22;2042;47.956;9.222;2024-03-23T16:53:37;6.30;1.00
4054;DHT22;2042;47.956;9.222;2024-03-23T16:56:07;6.20;1.00
4054;DHT22;2042;47.956;9.222;2024-03-23T16:58:37;6.10;1.00
4054;DHT22;2042;47.956;9.222;2024-03-23T17:01:09;5.90;1.00
4054;DHT22;2042;47.956;9.222;2024-03-23T17:03:37;5.70;1.00
4054;DHT22;2042;47.956;9.222;2024-03-23T17:06:06;5.60;1.00
4054;DHT22;2042;47.956;9.222;2024-03-23T17:08:32;5.50;1.00
4054;DHT22;2042;47.956;9.222;2024-03-23T17:11:02;5.40;1.00
4054;DHT22;2042;47.956;9.222;2024-03-23T17:13:33;5.20;1.00
4054;DHT22;2042;47.956;9.222;2024-03-23T17:15:59;5.10;1.00
4054;DHT22;2042;47.956;9.222;2024-03-23T17:18:26;5.10;1.00
4054;DHT22;2042;47.956;9.222;2024-03-23T17:20:51;5.10;1.00
4054;DHT22;2042;47.956;9.222;2024-03-23T17:23:28;5.00;1.00
4054;DHT22;2042;47.956;9.222;2024-03-23T17:25:54;4.90;1.00
4054;DHT22;2042;47.956;9.222;2024-03-23T17:28:20;4.90;1.00
4054;DHT22;2042;47.956;9.222;2024-03-23T17:30:45;5.00;1.00
4054;DHT22;2042;47.956;9.222;2024-03-23T17:33:16;5.00;1.00
4054;DHT22;2042;47.956;9.222;2024-03-23T17:35:43;5.10;1.00